PAEM Airport Information

Runway Information
Runway 16 Length 4601 ft width 100 ft
Elevation 6 ft Threshold 0 ft Heading 177
Runway 34 Length 4601 ft Width 100 ft
Elevation 6 ft Threshold 0 ft Heading 357
Airport Frequencies
Type AWOS Name AWOS 3 Frequency 135.35 MHZ
Type CNTR Name ANCHORAGE Frequency 132.5 MHZ
Type CTAF Name CTAF Frequency 122.9 MHZ
Type FSS Name KENAI RDO Frequency 122.55 MHZ
Type MISC Name TWEB Frequency 177.8 MHZ
Airport Navaids
Type VOR-DME Name Emmonak Frequency 117800 KHZ
Airport Weather Information & NOTAM
ADDS - METARS form results

(2202 UTC 22 July 2018)
 
METAR text: PAEM 222156Z AUTO 17014KT 10SM BKN030 OVC036 18/13 A3010 RMK AO2 SLP253 T01780133
Conditions at: PAEM (EMMONAK , AK, US) observed 2156 UTC 22 July 2018
Temperature: 17.8°C (64°F)
Dewpoint: 13.3°C (56°F) [RH = 75%]
Pressure (altimeter): 30.10 inches Hg (1019.4 mb)
[Sea-level pressure: 1025.3 mb]
Winds: from the S (170 degrees) at 16 MPH (14 knots; 7.3 m/s)
Visibility: 10 or more miles (16+ km)
Ceiling: 3000 feet AGL
Clouds: broken clouds at 3000 feet AGL
overcast cloud deck at 3600 feet AGL
Weather: automated observation with no human augmentation;
there may or may not be significant weather present at this time

METAR text: PAEM 222132Z AUTO 17011KT 10SM FEW024 BKN032 OVC039 18/13 A3010 RMK AO2
Conditions at: PAEM (EMMONAK , AK, US) observed 2132 UTC 22 July 2018
Temperature: 18.0°C (64°F)
Dewpoint: 13.0°C (55°F) [RH = 73%]
Pressure (altimeter): 30.10 inches Hg (1019.4 mb)
Winds: from the S (170 degrees) at 13 MPH (11 knots; 5.7 m/s)
Visibility: 10 or more miles (16+ km)
Ceiling: 3200 feet AGL
Clouds: few clouds at 2400 feet AGL
broken clouds at 3200 feet AGL
overcast cloud deck at 3900 feet AGL
Weather: automated observation with no human augmentation;
there may or may not be significant weather present at this time